Arviat - eastern half: Past 24 Hour Conditions

 

Cape Dorset Airport

08:00 AM EDT 25 October 2014
This table is a summary of hourly weather conditions for the past 24 hours.
Date / Time
(EDT)
Wind(knots) Conditions Visibility(km) Pressure(kPa) Air tempC) Relative humidity(%) Dew pointC) Wind Chill
25 October 2014
8:00 E 26 gust 33 Cloudy 16 101.6 -8 83 -10 -19
7:00 E 29 Cloudy 16 101.7 -8 80 -11 -19
6:00 ENE 26 gust 31 Cloudy 16 101.7 -8 81 -10 -18
5:00 E 24 gust 30 Cloudy 16 101.8 -7 77 -10 -17
4:00 ENE 24 gust 29 Cloudy 16 101.8 -7 78 -10 -17
3:00 E 24 gust 29 Cloudy 16 101.9 -7 76 -10 -17
2:00 E 20 gust 27 Cloudy 16 101.9 -6 76 -10 -15
1:00 E 16 gust 29 Cloudy 16 102.0 -6 78 -9 -14
0:00 E 17 gust 22 Cloudy 16 102.0 -6 76 -10 -15
24 October 2014
23:00 ENE 17 gust 23 Cloudy 16 102.1 -6 75 -10 -15
22:00 ENE 16 gust 22 Cloudy 16 102.1 -6 77 -9 -14
21:00 ENE 13 gust 19 Cloudy 16 102.2 -6 76 -10 -14
20:00 E 15 Cloudy 16 102.3 -6 75 -10 -14
19:00 ENE 14 gust 19 Cloudy 16 102.3 -7 74 -10 -14
18:00 ENE 12 Light Snow 16 102.3 -7 76 -10 -14
17:00 ENE 13 Cloudy 16 102.4 -7 78 -10 -15
16:00 NE 6 Cloudy 16 102.4 -7 76 -11 -12
15:00 ENE 7 Cloudy 16 102.4 -7 74 -11 -13
14:00 NE 6 Cloudy 16 102.5 -7 74 -11 -13
13:00 NE 6 Cloudy 16 102.5 -8 73 -12 -13
12:00 NE 6 Light Snow 24 102.5 -8 73 -12 -13
11:00 NE 6 Light Snow 24 102.6 -8 73 -12 -14
10:00 NNE 8 Light Snow 24 102.6 -8 76 -12 -14
9:00 N 5 Light Snow 24 102.6 -8 77 -12 -13
8:00 NNW 7 Light Snow 24 102.6 -9 76 -12 -14
 
Map of Arctic - Eastern Arctic marine weather areas Baker Lake Airport Chesterfield Inlet Airport Coral Harbour Airport Gjoa Haven Airport Kugaaruk Airport Rankin Inlet Airport Shepherd Bay Airport Whale Cove Airport Arctic Bay Brevoort Island Qikiqtarjuaq Airport Cape Dorset Airport Cape Dyer Cape Hooper Clyde Airport Grise Fiord Airport Hall Beach Airport Igloolik Airport Iqaluit Airport Longstaff Bluff Pangnirtung Airport Pond Inlet Airport Repulse Bay Airport Resolute Airport Resolution Island Rowley Island Airport Taloyoak Airport Wager Bay Akulivik Airport Ivujivik Airport Puvirnituq Airport Kangiqsujuaq Airport Kangirsuk Airport Quaqtaq Airport Tasiujaq Airport Cape Kakkiviak Cape Kiglapait Nain Airport Saglek Cape Mercy Kimmirut Airport Aupaluk Airport Salluit Airport Kangiqsualujjuaq Airport Fort Ross
Legend: buoyBuoy land stationLand Station